Time;durP1;ratioP1;P1;durP2;ratioP2;P2;SDS_P1;SDS_P2;PMS_P1;PMS_P2;Temp;Humidity;BMP_temperature;BMP_pressure;BME280_temperature;BME280_humidity;BME280_pressure;Samples;Min_cycle;Max_cycle;Signal;HPM_P1;HPM_P2
2022/05/31 00:02:23;;;;;;;4.35;2.38;;;;;;;;;;4914530;28;20349;-62
2022/05/31 00:04:49;;;;;;;6.53;3.15;;;;;;;;;;4913556;28;20438;-61
2022/05/31 00:07:15;;;;;;;5.55;2.70;;;;;;;;;;4914342;28;20397;-62
2022/05/31 00:09:40;;;;;;;3.80;2.10;;;;;;;;;;4914426;28;20030;-62
2022/05/31 00:12:06;;;;;;;4.60;2.53;;;;;;;;;;4914455;28;20077;-61
2022/05/31 00:14:32;;;;;;;6.20;2.55;;;;;;;;;;4914853;28;20456;-62
2022/05/31 00:16:59;;;;;;;7.75;2.65;;;;;;;;;;4913280;28;20030;-61
2022/05/31 00:19:25;;;;;;;5.53;2.90;;;;;;;;;;4914626;28;20481;-62
2022/05/31 00:21:55;;;;;;;6.35;3.03;;;;;;;;;;4915246;28;20372;-62
2022/05/31 00:24:22;;;;;;;5.93;2.45;;;;;;;;;;4912695;28;20342;-62
2022/05/31 00:26:48;;;;;;;4.07;2.30;;;;;;;;;;4914678;28;20165;-61
2022/05/31 00:29:15;;;;;;;2.90;1.83;;;;;;;;;;4914180;28;20051;-61
2022/05/31 00:31:44;;;;;;;4.30;2.38;;;;;;;;;;4913904;28;20451;-62
2022/05/31 00:34:11;;;;;;;5.15;2.65;;;;;;;;;;4914154;28;20381;-63
2022/05/31 00:36:38;;;;;;;4.43;2.00;;;;;;;;;;4915415;28;20318;-62
2022/05/31 00:39:04;;;;;;;5.72;2.38;;;;;;;;;;4915619;28;20385;-61
2022/05/31 00:41:31;;;;;;;4.55;2.15;;;;;;;;;;4913753;28;20358;-62
2022/05/31 00:43:59;;;;;;;3.60;1.98;;;;;;;;;;4913790;28;20418;-61
2022/05/31 00:46:30;;;;;;;3.50;2.40;;;;;;;;;;4912431;28;20512;-61
2022/05/31 00:48:59;;;;;;;5.00;2.50;;;;;;;;;;4912177;28;20026;-61
2022/05/31 00:51:36;;;;;;;4.13;1.92;;;;;;;;;;4912377;28;20454;-62
2022/05/31 00:54:04;;;;;;;4.25;2.08;;;;;;;;;;4912664;28;20031;-61
2022/05/31 00:56:30;;;;;;;3.78;2.10;;;;;;;;;;4913420;28;20353;-62
2022/05/31 00:59:01;;;;;;;4.60;2.15;;;;;;;;;;4912443;28;20030;-61
2022/05/31 01:01:27;;;;;;;2.45;1.80;;;;;;;;;;4906484;28;20417;-62
2022/05/31 01:03:53;;;;;;;4.95;2.35;;;;;;;;;;4913833;28;20369;-61
2022/05/31 01:06:20;;;;;;;3.75;2.00;;;;;;;;;;4912063;28;20058;-62
2022/05/31 01:08:46;;;;;;;8.27;2.30;;;;;;;;;;4913726;28;20464;-61
2022/05/31 01:11:19;;;;;;;5.10;2.42;;;;;;;;;;4913180;28;20339;-63
2022/05/31 01:13:44;;;;;;;4.10;2.15;;;;;;;;;;4912029;28;20520;-61
2022/05/31 01:16:12;;;;;;;3.42;2.13;;;;;;;;;;4912238;28;20053;-61
2022/05/31 01:18:37;;;;;;;4.28;1.92;;;;;;;;;;4913342;28;20050;-62
2022/05/31 01:21:04;;;;;;;4.43;2.15;;;;;;;;;;4913338;28;20043;-63
2022/05/31 01:23:34;;;;;;;3.25;2.00;;;;;;;;;;4913319;28;20442;-62
2022/05/31 01:26:12;;;;;;;3.80;2.15;;;;;;;;;;4911540;28;20196;-63
2022/05/31 01:28:49;;;;;;;2.78;1.85;;;;;;;;;;4911692;28;20397;-62
2022/05/31 01:31:24;;;;;;;3.97;1.98;;;;;;;;;;4911295;28;20315;-61
2022/05/31 01:34:20;;;;;;;4.47;2.40;;;;;;;;;;4911674;28;20366;-62
2022/05/31 01:36:56;;;;;;;4.32;2.08;;;;;;;;;;4896658;28;20382;-62
2022/05/31 01:39:37;;;;;;;4.50;2.40;;;;;;;;;;4913235;28;20370;-62
2022/05/31 01:42:03;;;;;;;6.30;2.22;;;;;;;;;;4912518;28;20350;-62
2022/05/31 01:44:33;;;;;;;3.58;2.05;;;;;;;;;;4911845;28;20027;-62
2022/05/31 01:47:00;;;;;;;3.90;2.17;;;;;;;;;;4911336;28;20497;-62
2022/05/31 01:49:30;;;;;;;2.65;1.70;;;;;;;;;;4912747;28;20347;-61
2022/05/31 01:51:56;;;;;;;3.70;2.38;;;;;;;;;;4911260;28;20520;-62
2022/05/31 01:54:22;;;;;;;2.58;1.80;;;;;;;;;;4911369;28;20430;-62
2022/05/31 01:56:48;;;;;;;3.05;1.73;;;;;;;;;;4911339;28;20489;-62
2022/05/31 01:59:14;;;;;;;4.53;2.00;;;;;;;;;;4912303;28;20393;-64
2022/05/31 02:01:40;;;;;;;2.33;1.80;;;;;;;;;;4912499;28;20093;-63
2022/05/31 02:04:06;;;;;;;3.45;1.80;;;;;;;;;;4911122;28;20385;-62
2022/05/31 02:06:37;;;;;;;5.43;1.95;;;;;;;;;;4911160;28;20331;-61
2022/05/31 02:09:05;;;;;;;3.38;1.75;;;;;;;;;;4913019;28;20093;-61
2022/05/31 02:11:30;;;;;;;2.25;1.50;;;;;;;;;;4912588;28;20417;-62
2022/05/31 02:13:58;;;;;;;3.35;1.67;;;;;;;;;;4913719;28;20061;-61
2022/05/31 02:16:24;;;;;;;5.05;2.05;;;;;;;;;;4912301;28;20430;-62
2022/05/31 02:21:36;;;;;;;3.38;1.90;;;;;;;;;;4913069;28;20441;-62
2022/05/31 02:24:07;;;;;;;3.20;2.00;;;;;;;;;;4910687;28;20418;-62
2022/05/31 02:26:33;;;;;;;2.50;1.40;;;;;;;;;;4911717;28;20057;-62
2022/05/31 02:28:59;;;;;;;3.25;1.55;;;;;;;;;;4911526;28;20043;-62
2022/05/31 02:31:24;;;;;;;2.90;1.60;;;;;;;;;;4912057;28;20449;-62
2022/05/31 02:33:50;;;;;;;4.53;1.70;;;;;;;;;;4912365;28;20442;-62
2022/05/31 02:36:15;;;;;;;4.28;2.00;;;;;;;;;;4912420;28;20381;-62
2022/05/31 02:38:40;;;;;;;2.70;1.45;;;;;;;;;;4911898;28;20358;-61
2022/05/31 02:41:06;;;;;;;2.83;1.60;;;;;;;;;;4911833;28;20442;-62
2022/05/31 02:43:31;;;;;;;3.90;1.83;;;;;;;;;;4911967;28;20094;-62
2022/05/31 02:45:59;;;;;;;1.63;1.25;;;;;;;;;;4913181;28;20130;-63
2022/05/31 02:48:25;;;;;;;2.17;1.60;;;;;;;;;;4911904;28;20346;-63
2022/05/31 02:50:50;;;;;;;3.40;2.10;;;;;;;;;;4913353;28;20023;-61
2022/05/31 02:53:15;;;;;;;2.05;1.52;;;;;;;;;;4911317;28;20517;-62
2022/05/31 02:55:41;;;;;;;5.57;1.77;;;;;;;;;;4911467;28;20458;-61
2022/05/31 02:58:06;;;;;;;2.58;1.80;;;;;;;;;;4911406;28;20093;-62
2022/05/31 03:00:31;;;;;;;2.63;1.67;;;;;;;;;;4910347;28;20027;-61
2022/05/31 03:02:58;;;;;;;2.50;1.63;;;;;;;;;;4911346;28;20130;-62
2022/05/31 03:05:23;;;;;;;4.15;2.00;;;;;;;;;;4911491;28;20465;-61
2022/05/31 03:07:48;;;;;;;3.05;1.73;;;;;;;;;;4911181;28;20489;-63
2022/05/31 03:10:14;;;;;;;3.10;2.08;;;;;;;;;;4911710;28;20524;-61
2022/05/31 03:12:39;;;;;;;2.13;1.45;;;;;;;;;;4911765;28;20466;-62
2022/05/31 03:15:12;;;;;;;2.60;1.73;;;;;;;;;;4911624;28;20023;-61
2022/05/31 03:17:42;;;;;;;7.63;1.92;;;;;;;;;;4910295;28;20377;-61
2022/05/31 03:20:18;;;;;;;1.52;1.20;;;;;;;;;;4910938;28;20373;-61
2022/05/31 03:22:46;;;;;;;2.53;1.77;;;;;;;;;;4909854;28;20433;-63
2022/05/31 03:25:24;;;;;;;3.00;1.70;;;;;;;;;;4911318;28;20338;-61
2022/05/31 03:27:49;;;;;;;5.22;1.98;;;;;;;;;;4913726;28;20545;-61
2022/05/31 03:30:15;;;;;;;3.42;1.77;;;;;;;;;;4928647;28;20452;-62
2022/05/31 03:32:40;;;;;;;3.58;1.67;;;;;;;;;;4930303;28;20457;-62
2022/05/31 03:35:07;;;;;;;1.55;1.00;;;;;;;;;;4928534;28;20386;-62
2022/05/31 03:37:32;;;;;;;3.10;1.42;;;;;;;;;;4930189;28;20060;-62
2022/05/31 03:39:58;;;;;;;2.38;1.75;;;;;;;;;;4929964;28;20434;-61
2022/05/31 03:42:23;;;;;;;2.97;1.77;;;;;;;;;;4930889;28;20480;-61
2022/05/31 03:44:51;;;;;;;3.15;1.60;;;;;;;;;;4930980;28;20549;-63
2022/05/31 03:47:16;;;;;;;4.97;1.70;;;;;;;;;;4930419;28;20054;-61
2022/05/31 03:49:41;;;;;;;2.47;1.50;;;;;;;;;;4928824;28;20057;-62
2022/05/31 03:52:07;;;;;;;1.85;1.50;;;;;;;;;;4931203;28;20022;-61
2022/05/31 03:54:36;;;;;;;2.92;1.63;;;;;;;;;;4930449;28;20524;-62
2022/05/31 03:57:01;;;;;;;2.63;1.58;;;;;;;;;;4929715;28;20354;-63
2022/05/31 03:59:27;;;;;;;3.47;1.48;;;;;;;;;;4930045;28;20516;-61
2022/05/31 04:01:52;;;;;;;2.15;1.45;;;;;;;;;;4930176;28;20445;-61
2022/05/31 04:04:17;;;;;;;3.60;1.90;;;;;;;;;;4930177;28;20465;-61
2022/05/31 04:06:43;;;;;;;1.80;1.35;;;;;;;;;;4929969;28;20548;-62
2022/05/31 04:09:08;;;;;;;3.47;1.80;;;;;;;;;;4930265;28;20481;-62
2022/05/31 04:11:33;;;;;;;2.55;1.40;;;;;;;;;;4930048;28;20417;-62
2022/05/31 04:14:00;;;;;;;2.22;1.30;;;;;;;;;;4930591;28;20487;-62
2022/05/31 04:16:26;;;;;;;2.38;1.40;;;;;;;;;;4929988;28;20026;-62
2022/05/31 04:18:52;;;;;;;2.17;1.60;;;;;;;;;;4929543;28;20060;-63
2022/05/31 04:21:17;;;;;;;2.50;1.40;;;;;;;;;;4930546;28;20523;-62
2022/05/31 04:24:01;;;;;;;4.35;1.98;;;;;;;;;;4929517;28;20108;-61
2022/05/31 04:26:29;;;;;;;2.75;2.08;;;;;;;;;;4930421;28;20449;-61
2022/05/31 04:28:55;;;;;;;3.73;2.03;;;;;;;;;;4916658;28;20334;-61
2022/05/31 04:31:20;;;;;;;2.55;2.03;;;;;;;;;;4910454;28;20550;-62
2022/05/31 04:33:46;;;;;;;3.22;1.63;;;;;;;;;;4910661;28;20057;-61
2022/05/31 04:36:14;;;;;;;2.20;1.52;;;;;;;;;;4910455;28;20554;-61
2022/05/31 04:38:39;;;;;;;1.73;1.43;;;;;;;;;;4910872;28;20427;-62
2022/05/31 04:41:06;;;;;;;2.60;1.60;;;;;;;;;;4911191;28;20461;-61
2022/05/31 04:43:34;;;;;;;2.78;1.60;;;;;;;;;;4909153;28;20319;-61
2022/05/31 04:46:20;;;;;;;2.15;1.58;;;;;;;;;;4912461;28;20434;-62
2022/05/31 04:48:46;;;;;;;3.10;1.75;;;;;;;;;;4913491;28;20133;-61
2022/05/31 04:51:12;;;;;;;2.40;1.60;;;;;;;;;;4913651;28;20031;-62
2022/05/31 04:53:41;;;;;;;2.58;1.50;;;;;;;;;;4913896;28;20027;-62
2022/05/31 04:56:08;;;;;;;;;;;;;;;;;;4914288;28;20557;-62
2022/05/31 04:58:33;;;;;;;2.83;1.77;;;;;;;;;;4913868;28;20336;-61
2022/05/31 05:01:01;;;;;;;1.98;1.48;;;;;;;;;;4913188;28;20430;-61
2022/05/31 05:03:30;;;;;;;2.17;1.42;;;;;;;;;;4913453;28;20030;-62
2022/05/31 05:06:03;;;;;;;2.17;1.50;;;;;;;;;;4913640;28;20393;-62
2022/05/31 05:08:29;;;;;;;1.90;1.50;;;;;;;;;;4913628;28;20054;-62
2022/05/31 05:10:55;;;;;;;1.45;1.10;;;;;;;;;;4913905;28;20417;-63
2022/05/31 05:13:20;;;;;;;2.42;1.75;;;;;;;;;;4913149;28;20401;-62
2022/05/31 05:15:45;;;;;;;2.70;1.55;;;;;;;;;;4912845;28;20323;-62
2022/05/31 05:18:11;;;;;;;2.22;1.33;;;;;;;;;;4913805;28;20390;-62
2022/05/31 05:20:38;;;;;;;1.95;1.42;;;;;;;;;;4913147;28;20422;-62
2022/05/31 05:23:04;;;;;;;5.03;1.60;;;;;;;;;;4913282;28;20049;-62
2022/05/31 05:25:30;;;;;;;3.47;1.95;;;;;;;;;;4913579;28;20031;-62
2022/05/31 05:27:55;;;;;;;2.33;1.33;;;;;;;;;;4913150;28;20547;-62
2022/05/31 05:30:39;;;;;;;2.05;1.20;;;;;;;;;;4913349;28;20461;-62
2022/05/31 05:33:04;;;;;;;2.53;1.67;;;;;;;;;;4913228;28;20374;-62
2022/05/31 05:35:30;;;;;;;2.58;1.33;;;;;;;;;;4913223;28;20330;-63
2022/05/31 05:37:55;;;;;;;3.85;1.50;;;;;;;;;;4912850;28;20030;-62
2022/05/31 05:40:20;;;;;;;2.15;1.58;;;;;;;;;;4914144;28;20394;-62
2022/05/31 05:42:46;;;;;;;4.45;2.20;;;;;;;;;;4914675;28;20390;-61
2022/05/31 05:45:11;;;;;;;2.70;1.70;;;;;;;;;;4913671;28;20058;-62
2022/05/31 05:47:37;;;;;;;2.55;1.75;;;;;;;;;;4912709;28;20365;-63
2022/05/31 05:50:03;;;;;;;4.95;2.35;;;;;;;;;;4912535;28;20434;-62
2022/05/31 05:52:29;;;;;;;3.15;1.65;;;;;;;;;;4913258;28;20501;-62
2022/05/31 05:54:54;;;;;;;2.42;1.52;;;;;;;;;;4912647;28;20405;-62
2022/05/31 05:57:19;;;;;;;2.17;1.48;;;;;;;;;;4912247;28;20031;-62
2022/05/31 05:59:45;;;;;;;3.15;1.85;;;;;;;;;;4912328;28;20333;-62
2022/05/31 06:02:18;;;;;;;2.28;1.60;;;;;;;;;;4912677;28;20544;-62
2022/05/31 06:04:48;;;;;;;5.60;1.90;;;;;;;;;;4911256;28;20531;-62
2022/05/31 06:07:21;;;;;;;3.30;2.20;;;;;;;;;;4912712;28;20449;-62
2022/05/31 06:09:54;;;;;;;2.22;1.48;;;;;;;;;;4912249;28;20417;-62
2022/05/31 06:12:23;;;;;;;3.03;1.58;;;;;;;;;;4912240;28;20034;-61
2022/05/31 06:14:53;;;;;;;1.75;1.27;;;;;;;;;;4910569;28;20350;-62
2022/05/31 06:17:21;;;;;;;3.33;1.65;;;;;;;;;;4911007;28;20430;-62
2022/05/31 06:19:48;;;;;;;3.05;1.60;;;;;;;;;;4912020;28;20438;-62
2022/05/31 06:22:13;;;;;;;2.13;1.35;;;;;;;;;;4911097;28;20109;-62
2022/05/31 06:24:39;;;;;;;1.70;1.10;;;;;;;;;;4912078;28;20441;-62
2022/05/31 06:27:04;;;;;;;2.22;1.42;;;;;;;;;;4910799;28;20423;-62
2022/05/31 06:29:30;;;;;;;2.00;1.50;;;;;;;;;;4912521;28;20073;-63
2022/05/31 06:31:55;;;;;;;1.92;1.17;;;;;;;;;;4912125;28;20319;-62
2022/05/31 06:34:21;;;;;;;3.10;1.50;;;;;;;;;;4912098;28;20401;-62
2022/05/31 06:36:46;;;;;;;2.08;1.50;;;;;;;;;;4912298;28;20319;-62
2022/05/31 06:39:12;;;;;;;1.70;1.30;;;;;;;;;;4911724;28;20423;-62
2022/05/31 06:41:37;;;;;;;2.80;1.70;;;;;;;;;;4911669;28;20430;-62
2022/05/31 06:44:03;;;;;;;2.97;1.38;;;;;;;;;;4911736;28;20511;-62
2022/05/31 06:46:29;;;;;;;2.65;1.88;;;;;;;;;;4912281;28;20606;-64
2022/05/31 06:48:56;;;;;;;2.95;1.40;;;;;;;;;;4911763;28;20395;-62
2022/05/31 06:56:52;;;;;;;1.70;1.30;;;;;;;;;;4912393;28;20326;-62
2022/05/31 06:59:18;;;;;;;2.78;1.40;;;;;;;;;;4911514;28;20486;-63
2022/05/31 07:01:45;;;;;;;1.73;1.02;;;;;;;;;;4911200;28;20520;-62
2022/05/31 07:04:10;;;;;;;1.90;1.02;;;;;;;;;;4911559;28;20346;-63
2022/05/31 07:06:35;;;;;;;2.75;1.48;;;;;;;;;;4911490;28;20030;-62
2022/05/31 07:09:01;;;;;;;1.63;1.23;;;;;;;;;;4911577;28;20342;-63
2022/05/31 07:11:27;;;;;;;2.25;1.20;;;;;;;;;;4911612;28;20398;-64
2022/05/31 07:13:53;;;;;;;2.80;1.27;;;;;;;;;;4911277;28;20378;-62
2022/05/31 07:16:18;;;;;;;3.42;1.58;;;;;;;;;;4911289;28;20397;-63
2022/05/31 07:18:43;;;;;;;2.05;1.38;;;;;;;;;;4911465;28;20524;-63
2022/05/31 07:21:09;;;;;;;1.48;1.10;;;;;;;;;;4911111;28;20472;-62
2022/05/31 07:23:34;;;;;;;3.72;1.75;;;;;;;;;;4911458;28;20365;-62
2022/05/31 07:26:00;;;;;;;2.42;1.42;;;;;;;;;;4911193;28;20354;-62
2022/05/31 07:28:28;;;;;;;2.17;1.58;;;;;;;;;;4911353;28;20517;-62
2022/05/31 07:30:55;;;;;;;1.80;1.10;;;;;;;;;;4911265;28;20339;-63
2022/05/31 07:33:20;;;;;;;1.65;1.10;;;;;;;;;;4911397;28;20297;-63
2022/05/31 07:35:45;;;;;;;2.78;1.40;;;;;;;;;;4909795;28;20418;-62
2022/05/31 07:38:11;;;;;;;3.05;1.42;;;;;;;;;;4911095;28;20373;-62
2022/05/31 07:40:36;;;;;;;4.07;1.30;;;;;;;;;;4912705;28;20315;-63
2022/05/31 07:43:02;;;;;;;2.65;1.30;;;;;;;;;;4911379;28;20401;-62
2022/05/31 07:45:28;;;;;;;1.80;1.05;;;;;;;;;;4910978;28;20030;-63
2022/05/31 07:47:53;;;;;;;2.50;1.27;;;;;;;;;;4911372;28;20445;-63
2022/05/31 07:50:19;;;;;;;2.65;1.10;;;;;;;;;;4910978;28;20038;-64
2022/05/31 07:52:44;;;;;;;3.88;1.65;;;;;;;;;;4910971;28;20030;-62
2022/05/31 07:55:10;;;;;;;1.33;1.10;;;;;;;;;;4911868;28;20038;-63
2022/05/31 08:00:19;;;;;;;1.65;1.25;;;;;;;;;;4910565;28;20492;-62
2022/05/31 08:02:45;;;;;;;1.58;1.05;;;;;;;;;;4911332;28;20410;-62
2022/05/31 08:05:10;;;;;;;2.30;1.65;;;;;;;;;;4910932;28;20366;-62
2022/05/31 08:07:35;;;;;;;5.25;1.52;;;;;;;;;;4911063;28;20434;-64
2022/05/31 08:10:01;;;;;;;1.33;1.20;;;;;;;;;;4910628;28;20402;-63
2022/05/31 08:12:26;;;;;;;2.30;1.25;;;;;;;;;;4911081;28;20366;-63
2022/05/31 08:14:51;;;;;;;2.53;1.30;;;;;;;;;;4910761;28;20098;-63
2022/05/31 08:17:17;;;;;;;1.38;1.10;;;;;;;;;;4910861;28;20449;-64
2022/05/31 08:19:42;;;;;;;3.38;1.55;;;;;;;;;;4912157;28;20402;-63
2022/05/31 08:22:08;;;;;;;1.98;1.00;;;;;;;;;;4914815;28;20144;-62
2022/05/31 08:24:33;;;;;;;2.00;1.27;;;;;;;;;;4913849;28;20023;-62
2022/05/31 08:27:00;;;;;;;1.08;0.88;;;;;;;;;;4915840;28;20430;-62
2022/05/31 08:29:26;;;;;;;2.88;1.48;;;;;;;;;;4914250;28;20397;-63
2022/05/31 08:31:51;;;;;;;1.38;1.02;;;;;;;;;;4912732;28;20110;-65
2022/05/31 08:34:16;;;;;;;2.25;1.23;;;;;;;;;;4914767;28;20322;-63
2022/05/31 08:36:41;;;;;;;1.38;1.00;;;;;;;;;;4913898;28;20427;-62
2022/05/31 08:39:07;;;;;;;2.58;1.30;;;;;;;;;;4913912;28;20408;-63
2022/05/31 08:41:36;;;;;;;2.35;1.20;;;;;;;;;;4914287;28;20484;-63
2022/05/31 08:44:30;;;;;;;1.80;1.25;;;;;;;;;;4913912;28;20447;-63
2022/05/31 08:47:36;;;;;;;2.75;1.30;;;;;;;;;;4912523;28;20369;-63
2022/05/31 08:53:21;;;;;;;2.58;1.33;;;;;;;;;;4914290;28;20401;-63
2022/05/31 08:59:00;;;;;;;2.97;1.13;;;;;;;;;;4913119;28;20523;-63
2022/05/31 09:01:33;;;;;;;3.10;1.23;;;;;;;;;;4912746;28;20444;-62
2022/05/31 09:04:13;;;;;;;4.13;1.60;;;;;;;;;;4912343;28;20504;-63
2022/05/31 09:07:07;;;;;;;1.38;1.17;;;;;;;;;;4913845;28;20092;-62
2022/05/31 09:09:39;;;;;;;1.60;1.05;;;;;;;;;;4897952;28;20409;-63
2022/05/31 09:12:26;;;;;;;2.30;1.58;;;;;;;;;;4912501;28;20461;-63
2022/05/31 09:15:02;;;;;;;2.10;1.20;;;;;;;;;;4913428;28;20437;-63
2022/05/31 09:17:58;;;;;;;1.45;1.10;;;;;;;;;;4912879;28;20508;-62
2022/05/31 09:20:31;;;;;;;1.45;1.10;;;;;;;;;;4913767;28;20423;-63
2022/05/31 09:22:56;;;;;;;1.55;1.05;;;;;;;;;;4912809;28;20337;-63
2022/05/31 09:25:22;;;;;;;1.83;1.30;;;;;;;;;;4913406;28;20341;-63
2022/05/31 09:27:49;;;;;;;1.92;0.90;;;;;;;;;;4912243;28;20356;-63
2022/05/31 09:30:41;;;;;;;0.98;0.88;;;;;;;;;;4913073;28;20434;-63
2022/05/31 09:33:17;;;;;;;1.23;0.90;;;;;;;;;;4911441;28;20039;-63
2022/05/31 09:35:45;;;;;;;1.27;1.13;;;;;;;;;;4912132;28;20426;-63
2022/05/31 09:38:14;;;;;;;1.67;1.00;;;;;;;;;;4913985;28;20423;-63
2022/05/31 09:40:44;;;;;;;1.83;1.33;;;;;;;;;;4912578;28;20489;-62
2022/05/31 09:43:30;;;;;;;1.60;1.15;;;;;;;;;;4911761;28;20026;-63
2022/05/31 09:46:09;;;;;;;1.42;0.95;;;;;;;;;;4913421;28;20381;-63
2022/05/31 09:48:44;;;;;;;1.23;1.05;;;;;;;;;;4913569;28;20370;-63
2022/05/31 09:51:24;;;;;;;2.72;1.38;;;;;;;;;;4913582;28;20394;-63
2022/05/31 09:59:23;;;;;;;1.30;0.95;;;;;;;;;;4913592;28;20565;-62
2022/05/31 10:01:49;;;;;;;1.30;1.00;;;;;;;;;;4912455;28;20496;-62
2022/05/31 10:04:26;;;;;;;1.20;0.90;;;;;;;;;;4912767;28;20423;-62
2022/05/31 10:07:01;;;;;;;1.50;0.93;;;;;;;;;;4912825;28;20423;-63
2022/05/31 10:09:44;;;;;;;2.22;0.90;;;;;;;;;;4912684;28;20023;-63
2022/05/31 10:12:10;;;;;;;1.33;0.90;;;;;;;;;;4912071;28;20434;-63
2022/05/31 10:14:36;;;;;;;1.73;1.10;;;;;;;;;;4914207;28;20337;-63
2022/05/31 10:17:37;;;;;;;2.25;0.93;;;;;;;;;;4910742;28;20382;-63
2022/05/31 10:20:22;;;;;;;2.70;1.10;;;;;;;;;;4912090;28;20441;-63
2022/05/31 10:22:57;;;;;;;1.77;1.08;;;;;;;;;;4912219;28;20485;-63
2022/05/31 10:25:47;;;;;;;1.77;1.17;;;;;;;;;;4910849;28;20034;-63
2022/05/31 10:28:21;;;;;;;1.92;0.90;;;;;;;;;;4911783;28;20058;-63
2022/05/31 10:30:52;;;;;;;1.10;0.95;;;;;;;;;;4910222;28;20434;-62
2022/05/31 10:33:23;;;;;;;1.50;1.13;;;;;;;;;;4910757;28;20030;-63
2022/05/31 10:36:05;;;;;;;0.85;0.80;;;;;;;;;;4912240;28;20418;-62
2022/05/31 10:38:31;;;;;;;1.40;1.10;;;;;;;;;;4913202;28;20322;-64
2022/05/31 10:41:04;;;;;;;2.38;1.10;;;;;;;;;;4911573;28;20338;-63
2022/05/31 10:43:36;;;;;;;0.90;0.75;;;;;;;;;;4912487;28;20584;-62
2022/05/31 10:46:09;;;;;;;2.53;1.10;;;;;;;;;;4910426;28;20454;-63
2022/05/31 10:48:40;;;;;;;1.45;0.85;;;;;;;;;;4910773;28;20342;-63
2022/05/31 10:51:32;;;;;;;2.03;1.17;;;;;;;;;;4911820;28;20476;-63
2022/05/31 10:54:16;;;;;;;1.75;0.88;;;;;;;;;;4911590;28;20034;-63
2022/05/31 10:56:49;;;;;;;2.83;1.23;;;;;;;;;;4912160;28;20438;-63
2022/05/31 10:59:25;;;;;;;1.60;1.20;;;;;;;;;;4911996;28;20093;-62
2022/05/31 11:01:57;;;;;;;3.08;1.10;;;;;;;;;;4910065;28;20445;-63
2022/05/31 11:04:41;;;;;;;1.67;1.02;;;;;;;;;;4911654;28;20461;-62
2022/05/31 11:07:27;;;;;;;1.33;0.93;;;;;;;;;;4911296;28;20461;-63
2022/05/31 11:13:26;;;;;;;1.17;0.80;;;;;;;;;;4910507;28;20416;-63
2022/05/31 11:16:05;;;;;;;1.60;0.82;;;;;;;;;;4911056;28;20436;-63
2022/05/31 11:18:58;;;;;;;1.15;0.90;;;;;;;;;;4912319;28;20074;-63
2022/05/31 11:21:52;;;;;;;4.20;0.90;;;;;;;;;;4910620;28;20331;-65
2022/05/31 11:24:55;;;;;;;1.88;0.93;;;;;;;;;;4922246;28;20061;-63
2022/05/31 11:27:38;;;;;;;1.15;1.00;;;;;;;;;;4909876;28;20354;-63
2022/05/31 11:30:21;;;;;;;1.70;0.90;;;;;;;;;;4930496;28;20373;-63
2022/05/31 11:33:19;;;;;;;2.65;1.00;;;;;;;;;;4913974;28;20348;-63
2022/05/31 11:36:00;;;;;;;1.20;0.90;;;;;;;;;;4930427;28;20433;-62
2022/05/31 11:38:33;;;;;;;1.83;1.17;;;;;;;;;;4930566;28;20049;-63
2022/05/31 11:41:06;;;;;;;1.92;1.00;;;;;;;;;;4928530;28;20480;-62
2022/05/31 11:44:12;;;;;;;2.65;1.20;;;;;;;;;;4930334;28;20449;-62
2022/05/31 11:46:51;;;;;;;1.75;0.98;;;;;;;;;;4929672;28;20400;-63
2022/05/31 11:50:06;;;;;;;1.23;0.85;;;;;;;;;;4913053;28;20345;-64
2022/05/31 11:53:09;;;;;;;1.30;0.95;;;;;;;;;;4919651;28;20109;-63
2022/05/31 11:56:13;;;;;;;1.65;0.85;;;;;;;;;;4931173;28;20428;-63
2022/05/31 11:58:51;;;;;;;3.38;0.98;;;;;;;;;;4916435;28;20480;-63
2022/05/31 12:01:55;;;;;;;1.00;0.90;;;;;;;;;;4935269;28;20469;-63
2022/05/31 12:04:25;;;;;;;1.60;0.82;;;;;;;;;;4901124;28;20042;-64
2022/05/31 12:06:56;;;;;;;1.52;0.88;;;;;;;;;;4934798;28;20460;-63
2022/05/31 12:09:31;;;;;;;1.58;1.08;;;;;;;;;;4916539;28;20509;-63
2022/05/31 12:12:13;;;;;;;1.17;0.77;;;;;;;;;;4916821;28;20089;-64
2022/05/31 12:14:45;;;;;;;2.15;0.88;;;;;;;;;;4932594;28;20023;-62
2022/05/31 12:17:11;;;;;;;2.28;1.30;;;;;;;;;;4934858;28;20412;-63
2022/05/31 12:19:59;;;;;;;1.45;1.10;;;;;;;;;;4932068;28;20453;-64
2022/05/31 12:22:34;;;;;;;1.65;0.88;;;;;;;;;;4932229;28;20457;-62
2022/05/31 12:25:05;;;;;;;1.45;1.10;;;;;;;;;;4932722;28;20476;-62
2022/05/31 12:27:38;;;;;;;1.50;1.08;;;;;;;;;;4931155;28;20034;-63
2022/05/31 12:30:08;;;;;;;1.33;1.00;;;;;;;;;;4913364;28;20558;-62
2022/05/31 12:32:36;;;;;;;2.92;0.90;;;;;;;;;;4912663;28;20338;-63
2022/05/31 12:35:04;;;;;;;2.25;1.13;;;;;;;;;;4914302;28;20354;-63
2022/05/31 12:37:49;;;;;;;1.15;0.85;;;;;;;;;;4913854;28;20449;-62
2022/05/31 12:40:41;;;;;;;0.85;0.73;;;;;;;;;;4915891;28;20489;-63
2022/05/31 12:43:15;;;;;;;1.80;1.00;;;;;;;;;;4914208;28;20030;-63
2022/05/31 12:45:42;;;;;;;1.17;0.80;;;;;;;;;;4914420;28;20437;-62
2022/05/31 12:48:12;;;;;;;1.73;1.08;;;;;;;;;;4914946;28;20342;-63
2022/05/31 12:50:56;;;;;;;2.35;0.90;;;;;;;;;;4912495;28;20493;-63
2022/05/31 12:53:36;;;;;;;1.25;1.00;;;;;;;;;;4902552;28;20357;-63
2022/05/31 12:56:03;;;;;;;1.73;1.33;;;;;;;;;;4914030;28;20440;-63
2022/05/31 12:58:30;;;;;;;1.60;1.02;;;;;;;;;;4914290;28;20462;-63
2022/05/31 13:00:55;;;;;;;1.73;1.13;;;;;;;;;;4914460;28;20422;-63
2022/05/31 13:03:32;;;;;;;2.10;0.98;;;;;;;;;;4914179;28;20361;-63
2022/05/31 13:06:04;;;;;;;1.75;1.15;;;;;;;;;;4913791;28;20387;-63
2022/05/31 13:08:51;;;;;;;1.50;1.10;;;;;;;;;;4912185;28;20409;-62
2022/05/31 13:20:13;;;;;;;1.48;1.00;;;;;;;;;;4913586;28;20348;-63
2022/05/31 13:22:44;;;;;;;1.67;0.95;;;;;;;;;;4911966;28;20061;-63
2022/05/31 13:25:37;;;;;;;1.63;1.02;;;;;;;;;;4911932;28;20135;-64
2022/05/31 13:28:03;;;;;;;1.50;1.00;;;;;;;;;;4916375;28;20042;-63
2022/05/31 13:30:31;;;;;;;0.82;0.70;;;;;;;;;;4932155;28;20027;-63
2022/05/31 13:32:57;;;;;;;2.00;1.17;;;;;;;;;;4932784;28;20373;-62
2022/05/31 13:35:28;;;;;;;1.30;1.20;;;;;;;;;;4933079;28;20030;-63
2022/05/31 13:38:03;;;;;;;2.72;1.00;;;;;;;;;;4932406;28;20334;-63
2022/05/31 13:40:40;;;;;;;3.13;1.23;;;;;;;;;;4932619;28;20377;-63
2022/05/31 13:43:17;;;;;;;2.88;0.98;;;;;;;;;;4930944;28;20418;-63
2022/05/31 13:45:42;;;;;;;1.98;1.15;;;;;;;;;;4931969;28;20035;-64
2022/05/31 13:48:15;;;;;;;1.20;1.00;;;;;;;;;;4930389;28;20469;-63
2022/05/31 13:50:54;;;;;;;2.25;1.33;;;;;;;;;;4932053;28;20441;-63
2022/05/31 13:53:20;;;;;;;3.47;1.75;;;;;;;;;;4932302;28;20026;-63
2022/05/31 13:55:45;;;;;;;1.73;0.95;;;;;;;;;;4932518;28;20084;-65
2022/05/31 13:58:13;;;;;;;2.03;1.30;;;;;;;;;;4932253;28;20469;-63
2022/05/31 14:00:44;;;;;;;1.02;0.93;;;;;;;;;;4931630;28;20049;-63
2022/05/31 14:03:22;;;;;;;1.65;1.23;;;;;;;;;;4932570;28;20367;-63
2022/05/31 14:05:52;;;;;;;1.40;1.10;;;;;;;;;;4932162;28;20457;-63
2022/05/31 14:08:23;;;;;;;1.67;1.05;;;;;;;;;;4931593;28;20716;-66
2022/05/31 14:10:49;;;;;;;2.53;1.25;;;;;;;;;;4930314;28;20341;-63
2022/05/31 14:13:25;;;;;;;1.75;1.35;;;;;;;;;;4931659;28;20458;-64
2022/05/31 14:16:11;;;;;;;1.75;1.20;;;;;;;;;;4946111;28;20115;-63
2022/05/31 14:18:56;;;;;;;1.33;1.10;;;;;;;;;;4931249;28;20380;-63
2022/05/31 14:21:23;;;;;;;2.85;1.10;;;;;;;;;;4931526;28;20433;-64
2022/05/31 14:23:48;;;;;;;1.92;1.10;;;;;;;;;;4931504;28;20364;-62
2022/05/31 14:26:15;;;;;;;5.07;1.20;;;;;;;;;;4930714;28;20357;-63
2022/05/31 14:29:10;;;;;;;1.13;1.00;;;;;;;;;;4921808;28;20419;-62
2022/05/31 14:31:38;;;;;;;0.95;0.80;;;;;;;;;;4912343;28;20320;-66
2022/05/31 14:34:05;;;;;;;1.98;1.20;;;;;;;;;;4911251;28;20323;-63
2022/05/31 14:36:35;;;;;;;0.98;0.85;;;;;;;;;;4912563;28;20522;-64
2022/05/31 14:39:02;;;;;;;1.67;0.90;;;;;;;;;;4910493;28;20383;-63
2022/05/31 14:41:40;;;;;;;3.42;1.10;;;;;;;;;;4912184;28;20357;-63
2022/05/31 14:44:42;;;;;;;1.85;1.00;;;;;;;;;;4910665;28;20391;-62
2022/05/31 14:47:13;;;;;;;1.58;1.02;;;;;;;;;;4911725;28;20121;-62
2022/05/31 14:50:06;;;;;;;1.95;1.05;;;;;;;;;;4913017;28;20362;-63
2022/05/31 14:52:42;;;;;;;0.85;0.82;;;;;;;;;;4911724;28;20334;-64
2022/05/31 14:55:08;;;;;;;1.92;1.20;;;;;;;;;;4911944;28;20398;-63
2022/05/31 15:00:18;;;;;;;1.50;1.00;;;;;;;;;;4911752;28;20582;-63
2022/05/31 15:02:44;;;;;;;1.80;1.00;;;;;;;;;;4911451;28;20374;-62
2022/05/31 15:05:10;;;;;;;1.42;1.13;;;;;;;;;;4910694;28;20354;-63
2022/05/31 15:08:07;;;;;;;1.38;1.05;;;;;;;;;;4911462;28;20339;-62
2022/05/31 15:10:51;;;;;;;1.88;1.08;;;;;;;;;;4878381;28;20069;-63
2022/05/31 15:21:15;;;;;;;2.08;1.20;;;;;;;;;;4911832;28;20452;-62
2022/05/31 15:23:40;;;;;;;1.25;1.05;;;;;;;;;;4911465;28;20354;-63
2022/05/31 15:26:06;;;;;;;1.52;1.23;;;;;;;;;;4911411;28;20500;-62
2022/05/31 15:28:32;;;;;;;1.85;1.27;;;;;;;;;;4910947;28;20406;-64
2022/05/31 15:31:07;;;;;;;1.33;1.05;;;;;;;;;;4910264;28;20046;-63
2022/05/31 15:33:32;;;;;;;1.25;1.10;;;;;;;;;;4910022;28;20397;-63
2022/05/31 15:35:58;;;;;;;1.33;1.10;;;;;;;;;;4912202;28;20411;-62
2022/05/31 15:38:25;;;;;;;1.92;1.15;;;;;;;;;;4909908;28;20454;-63
2022/05/31 15:40:51;;;;;;;1.83;1.20;;;;;;;;;;4909307;28;20322;-64
2022/05/31 15:43:51;;;;;;;1.20;1.10;;;;;;;;;;4912417;28;20034;-63
2022/05/31 15:46:03;;;;;;;1.63;1.20;;;;;;;;;;4911063;28;20072;-62
2022/05/31 15:48:28;;;;;;;1.73;1.10;;;;;;;;;;4910869;28;20027;-63
2022/05/31 15:50:58;;;;;;;1.27;1.00;;;;;;;;;;4912605;28;20043;-62
2022/05/31 15:53:24;;;;;;;1.50;1.08;;;;;;;;;;4911490;28;20544;-63